Time;durP1;ratioP1;P1;durP2;ratioP2;P2;SDS_P1;SDS_P2;PMS_P1;PMS_P2;Temp;Humidity;BMP_temperature;BMP_pressure;BME280_temperature;BME280_humidity;BME280_pressure;Samples;Min_cycle;Max_cycle;Signal;HPM_P1;HPM_P2
2023/10/05 00:01:45;;;;;;;7.10;4.57;;;14.40;99.90;;;;;;5034680;28;20501;-71
2023/10/05 00:04:15;;;;;;;6.50;3.67;;;14.40;99.90;;;;;;5035707;28;20415;-71
2023/10/05 00:06:45;;;;;;;6.90;3.70;;;14.40;99.90;;;;;;5035864;28;20420;-71
2023/10/05 00:09:15;;;;;;;6.50;3.40;;;14.40;99.90;;;;;;5035831;28;20497;-71
2023/10/05 00:11:45;;;;;;;5.63;3.10;;;14.40;99.90;;;;;;5035599;28;20428;-71
2023/10/05 00:14:13;;;;;;;4.73;3.10;;;14.40;99.90;;;;;;5035474;28;20526;-71
2023/10/05 00:16:46;;;;;;;6.67;3.30;;;14.40;99.90;;;;;;5035476;28;21003;-71
2023/10/05 00:19:16;;;;;;;9.33;3.30;;;14.40;99.90;;;;;;5034147;28;21026;-72
2023/10/05 00:21:50;;;;;;;5.47;3.40;;;14.40;99.90;;;;;;5034161;28;21024;-72
2023/10/05 00:24:25;;;;;;;8.33;4.13;;;14.40;99.90;;;;;;5035379;28;20451;-72
2023/10/05 00:26:56;;;;;;;8.73;3.70;;;14.40;99.90;;;;;;5035452;28;20854;-72
2023/10/05 00:29:27;;;;;;;5.30;3.23;;;14.40;99.90;;;;;;5035171;28;20437;-72
2023/10/05 00:31:58;;;;;;;8.93;3.50;;;14.40;99.90;;;;;;5033909;28;20975;-72
2023/10/05 00:34:27;;;;;;;7.87;3.97;;;14.40;99.90;;;;;;5033718;28;20467;-72
2023/10/05 00:36:58;;;;;;;9.23;3.57;;;14.30;99.90;;;;;;5034993;28;20435;-72
2023/10/05 00:39:30;;;;;;;5.87;3.40;;;14.40;99.90;;;;;;5033178;28;20858;-71
2023/10/05 00:42:08;;;;;;;7.90;3.70;;;14.40;99.90;;;;;;5035540;28;20419;-71
2023/10/05 00:44:40;;;;;;;6.33;4.30;;;14.30;99.90;;;;;;5034894;28;20454;-71
2023/10/05 00:47:12;;;;;;;6.43;3.30;;;14.30;99.90;;;;;;5035095;28;20454;-71
2023/10/05 00:49:51;;;;;;;6.13;3.50;;;14.30;99.90;;;;;;5034830;28;20447;-71
2023/10/05 00:52:24;;;;;;;6.87;3.53;;;14.30;99.90;;;;;;5033695;28;20443;-71
2023/10/05 00:54:56;;;;;;;8.23;3.97;;;14.30;99.90;;;;;;5033426;28;20467;-72
2023/10/05 00:57:27;;;;;;;9.90;4.73;;;14.30;99.90;;;;;;5034979;28;20462;-71
2023/10/05 01:00:15;;;;;;;6.93;3.60;;;14.30;99.90;;;;;;5033547;28;20869;-71
2023/10/05 01:03:03;;;;;;;4.43;3.67;;;14.30;99.90;;;;;;5033643;28;20439;-71
2023/10/05 01:05:37;;;;;;;10.03;4.10;;;14.30;99.90;;;;;;5034136;28;20467;-71
2023/10/05 01:08:14;;;;;;;10.43;4.03;;;14.30;99.90;;;;;;5033273;28;20457;-72
2023/10/05 01:10:45;;;;;;;4.90;3.90;;;14.30;99.90;;;;;;5033526;28;20453;-72
2023/10/05 01:13:28;;;;;;;10.77;4.20;;;14.30;99.90;;;;;;5033142;28;20501;-72
2023/10/05 01:15:59;;;;;;;7.43;3.83;;;14.30;99.90;;;;;;5032978;28;20914;-71
2023/10/05 01:18:29;;;;;;;8.40;3.27;;;14.30;99.90;;;;;;5033527;28;20435;-71
2023/10/05 01:21:01;;;;;;;6.20;3.77;;;14.30;99.90;;;;;;5034531;28;20534;-72
2023/10/05 01:23:38;;;;;;;7.20;3.57;;;14.30;99.90;;;;;;5034638;28;20426;-71
2023/10/05 01:26:10;;;;;;;6.00;3.40;;;14.30;99.90;;;;;;5032754;28;20467;-72
2023/10/05 01:28:41;;;;;;;6.20;3.90;;;14.30;99.90;;;;;;5032971;28;20439;-72
2023/10/05 01:31:16;;;;;;;6.80;4.07;;;14.30;99.90;;;;;;5032888;28;20439;-71
2023/10/05 01:33:46;;;;;;;8.77;4.20;;;14.20;99.90;;;;;;5034062;28;20517;-71
2023/10/05 01:36:15;;;;;;;5.00;3.27;;;14.20;99.90;;;;;;5032523;28;20467;-71
2023/10/05 01:38:47;;;;;;;6.87;3.77;;;14.20;99.90;;;;;;5032657;28;20867;-71
2023/10/05 01:41:20;;;;;;;8.83;3.40;;;14.20;99.90;;;;;;5032702;28;20469;-72
2023/10/05 01:43:51;;;;;;;6.17;4.13;;;14.20;99.90;;;;;;5034154;28;20481;-72
2023/10/05 01:46:21;;;;;;;9.23;3.80;;;14.20;99.90;;;;;;5032673;28;20500;-71
2023/10/05 01:48:51;;;;;;;6.97;4.00;;;14.20;99.90;;;;;;5033459;28;20478;-72
2023/10/05 01:51:23;;;;;;;9.10;4.30;;;14.20;99.90;;;;;;5032000;28;20530;-71
2023/10/05 01:54:01;;;;;;;5.73;4.00;;;14.20;99.90;;;;;;5032384;28;20442;-72
2023/10/05 01:56:29;;;;;;;8.10;4.17;;;14.20;99.90;;;;;;5032372;28;20462;-72
2023/10/05 01:59:00;;;;;;;9.17;5.40;;;14.20;99.90;;;;;;5032403;28;20438;-71
2023/10/05 02:01:28;;;;;;;10.13;5.03;;;14.20;99.90;;;;;;5032382;28;20890;-71
2023/10/05 02:03:59;;;;;;;6.90;4.57;;;14.20;99.90;;;;;;5033765;28;20431;-72
2023/10/05 02:06:28;;;;;;;7.70;4.87;;;14.20;99.90;;;;;;5032258;28;20446;-71
2023/10/05 02:08:58;;;;;;;6.20;4.10;;;14.20;99.90;;;;;;5034028;28;20431;-71
2023/10/05 02:11:27;;;;;;;6.70;4.03;;;14.20;99.90;;;;;;5032178;28;20478;-72
2023/10/05 02:13:57;;;;;;;8.17;4.93;;;14.20;99.90;;;;;;5032132;28;20439;-72
2023/10/05 02:16:27;;;;;;;7.33;4.60;;;14.20;99.90;;;;;;5032186;28;20469;-72
2023/10/05 02:18:56;;;;;;;6.53;4.47;;;14.20;99.90;;;;;;5032051;28;20450;-72
2023/10/05 02:21:30;;;;;;;9.93;4.70;;;14.20;99.90;;;;;;5032022;28;20493;-72
2023/10/05 02:24:10;;;;;;;6.30;4.17;;;14.20;99.90;;;;;;5033779;28;20422;-72
2023/10/05 02:26:53;;;;;;;6.47;4.63;;;14.20;99.90;;;;;;5033280;28;20529;-71
2023/10/05 02:29:23;;;;;;;7.33;4.43;;;14.20;99.90;;;;;;5033576;28;20506;-71
2023/10/05 02:31:58;;;;;;;6.73;4.23;;;14.20;99.90;;;;;;5033498;28;20472;-71
2023/10/05 02:34:28;;;;;;;7.07;4.13;;;14.20;99.90;;;;;;5031944;28;20471;-71
2023/10/05 02:36:57;;;;;;;6.37;4.10;;;14.20;99.90;;;;;;5031757;28;20471;-71
2023/10/05 02:39:27;;;;;;;6.80;4.80;;;14.20;99.90;;;;;;5031916;28;20439;-71
2023/10/05 02:41:56;;;;;;;8.40;4.77;;;14.20;99.90;;;;;;5031834;28;20960;-71
2023/10/05 02:44:29;;;;;;;7.63;4.70;;;14.20;99.90;;;;;;5032983;28;20450;-72
2023/10/05 02:46:59;;;;;;;7.37;4.50;;;14.20;99.90;;;;;;5031804;28;20443;-72
2023/10/05 02:49:28;;;;;;;9.83;5.10;;;14.20;99.90;;;;;;5031792;28;20439;-71
2023/10/05 02:51:56;;;;;;;9.70;4.73;;;14.20;99.90;;;;;;5031711;28;20451;-71
2023/10/05 02:54:27;;;;;;;5.00;4.10;;;14.20;99.90;;;;;;5031685;28;20474;-71
2023/10/05 02:56:55;;;;;;;7.33;4.93;;;14.20;99.90;;;;;;5031715;28;20533;-71
2023/10/05 02:59:27;;;;;;;5.73;4.17;;;14.20;99.90;;;;;;5032949;28;20445;-71
2023/10/05 03:02:00;;;;;;;8.60;4.43;;;14.20;99.90;;;;;;5034310;28;20455;-71
2023/10/05 03:04:44;;;;;;;10.17;4.77;;;14.20;99.90;;;;;;5037381;28;20505;-71
2023/10/05 03:07:15;;;;;;;8.77;4.80;;;14.20;99.90;;;;;;5035564;28;20439;-71
2023/10/05 03:09:46;;;;;;;9.10;4.30;;;14.20;99.90;;;;;;5035478;28;20451;-72
2023/10/05 03:12:16;;;;;;;8.63;4.10;;;14.20;99.90;;;;;;5035502;28;20439;-72
2023/10/05 03:14:44;;;;;;;5.63;4.10;;;14.20;99.90;;;;;;5035298;28;20467;-71
2023/10/05 03:17:19;;;;;;;6.73;3.70;;;14.20;99.90;;;;;;5035193;28;20562;-71
2023/10/05 03:19:50;;;;;;;6.20;4.60;;;14.20;99.90;;;;;;5035323;28;20435;-71
2023/10/05 03:22:23;;;;;;;7.50;4.57;;;14.20;99.90;;;;;;5035304;28;20439;-71
2023/10/05 03:24:56;;;;;;;6.83;3.80;;;14.20;99.90;;;;;;5035175;28;20907;-71
2023/10/05 03:27:25;;;;;;;5.63;3.50;;;14.20;99.90;;;;;;5036570;28;20466;-71
2023/10/05 03:30:01;;;;;;;5.63;4.13;;;14.20;99.90;;;;;;5036353;28;20417;-71
2023/10/05 03:32:31;;;;;;;5.40;3.60;;;14.20;99.90;;;;;;5035026;28;20439;-71
2023/10/05 03:34:59;;;;;;;4.53;3.50;;;14.20;99.90;;;;;;5036162;28;20463;-71
2023/10/05 03:37:29;;;;;;;5.10;3.70;;;14.20;99.90;;;;;;5034761;28;20498;-71
2023/10/05 03:40:07;;;;;;;6.60;4.20;;;14.20;99.90;;;;;;5034920;28;20462;-71
2023/10/05 03:42:36;;;;;;;5.30;3.97;;;14.20;99.90;;;;;;5034945;28;20489;-71
2023/10/05 03:45:09;;;;;;;11.27;4.80;;;14.20;99.90;;;;;;5036067;28;20458;-71
2023/10/05 03:47:38;;;;;;;8.13;3.90;;;14.20;99.90;;;;;;5034740;28;20435;-71
2023/10/05 03:50:16;;;;;;;7.87;4.60;;;14.20;99.90;;;;;;5034805;28;20442;-71
2023/10/05 03:52:47;;;;;;;6.57;4.07;;;14.30;99.90;;;;;;5035339;28;20439;-72
2023/10/05 03:55:18;;;;;;;5.60;3.63;;;14.30;99.90;;;;;;5034655;28;20555;-72
2023/10/05 03:57:50;;;;;;;6.33;3.50;;;14.30;99.90;;;;;;5034602;28;20454;-72
2023/10/05 04:00:31;;;;;;;5.57;4.17;;;14.30;99.90;;;;;;5034562;28;20526;-72
2023/10/05 04:02:59;;;;;;;13.37;4.63;;;14.30;99.90;;;;;;5034530;28;20435;-72
2023/10/05 04:05:28;;;;;;;10.03;3.67;;;14.30;99.90;;;;;;5035662;28;20458;-72
2023/10/05 04:08:10;;;;;;;7.87;3.67;;;14.30;99.90;;;;;;5036015;28;20793;-72
2023/10/05 04:10:46;;;;;;;8.50;3.80;;;14.30;99.90;;;;;;5035628;28;20452;-71
2023/10/05 04:13:17;;;;;;;7.83;3.80;;;14.30;99.90;;;;;;5033281;28;20439;-72
2023/10/05 04:15:45;;;;;;;5.70;3.67;;;14.30;99.90;;;;;;5035457;28;20456;-72
2023/10/05 04:18:15;;;;;;;8.87;4.10;;;14.30;99.90;;;;;;5034139;28;20529;-72
2023/10/05 04:20:44;;;;;;;6.80;4.00;;;14.30;99.90;;;;;;5035725;28;20538;-71
2023/10/05 04:23:15;;;;;;;5.40;3.80;;;14.30;99.90;;;;;;5035442;28;20439;-71
2023/10/05 04:25:47;;;;;;;8.80;3.73;;;14.30;99.90;;;;;;5035395;28;20463;-72
2023/10/05 04:28:15;;;;;;;8.57;4.00;;;14.30;99.90;;;;;;5035210;28;20449;-72
2023/10/05 04:30:43;;;;;;;10.37;4.20;;;14.30;99.90;;;;;;5035522;28;20443;-71
2023/10/05 04:33:14;;;;;;;8.87;4.00;;;14.30;99.90;;;;;;5034161;28;20813;-71
2023/10/05 04:35:45;;;;;;;6.77;3.87;;;14.30;99.90;;;;;;5033803;28;20466;-71
2023/10/05 04:38:13;;;;;;;6.33;3.80;;;14.30;99.90;;;;;;5033741;28;20467;-71
2023/10/05 04:40:41;;;;;;;8.07;4.10;;;14.30;99.90;;;;;;5035082;28;20526;-71
2023/10/05 04:43:12;;;;;;;7.37;4.00;;;14.30;99.90;;;;;;5035014;28;20438;-71
2023/10/05 04:45:42;;;;;;;6.97;3.93;;;14.30;99.90;;;;;;5034993;28;20867;-71
2023/10/05 04:48:12;;;;;;;7.30;3.70;;;14.30;99.90;;;;;;5033705;28;20505;-72
2023/10/05 04:50:41;;;;;;;7.40;3.80;;;14.20;99.90;;;;;;5034834;28;20439;-72
2023/10/05 04:53:11;;;;;;;7.47;4.10;;;14.20;99.90;;;;;;5034769;28;20466;-71
2023/10/05 04:55:42;;;;;;;9.97;4.30;;;14.20;99.90;;;;;;5033442;28;20465;-72
2023/10/05 04:58:31;;;;;;;6.50;3.70;;;14.20;99.90;;;;;;5034875;28;21022;-72
2023/10/05 05:01:28;;;;;;;8.90;4.80;;;14.20;99.90;;;;;;5034713;28;20416;-71
2023/10/05 05:04:13;;;;;;;5.97;3.60;;;14.20;99.90;;;;;;5034627;28;20455;-72
2023/10/05 05:06:43;;;;;;;10.37;4.40;;;14.20;99.90;;;;;;5035164;28;20415;-71
2023/10/05 05:09:11;;;;;;;8.20;4.00;;;14.20;99.90;;;;;;5034865;28;20446;-71
2023/10/05 05:11:40;;;;;;;8.73;3.50;;;14.20;99.90;;;;;;5034499;28;20453;-71
2023/10/05 05:14:12;;;;;;;5.87;3.93;;;14.20;99.90;;;;;;5034851;28;20439;-71
2023/10/05 05:16:43;;;;;;;8.13;4.07;;;14.20;99.90;;;;;;5033142;28;20511;-71
2023/10/05 05:19:12;;;;;;;11.10;3.87;;;14.20;99.90;;;;;;5034526;28;20459;-71
2023/10/05 05:21:40;;;;;;;9.90;4.70;;;14.20;99.90;;;;;;5034232;28;20435;-71
2023/10/05 05:24:09;;;;;;;5.93;3.80;;;14.20;99.90;;;;;;5034317;28;20466;-71
2023/10/05 05:26:41;;;;;;;6.00;3.47;;;14.20;99.90;;;;;;5034269;28;20459;-71
2023/10/05 05:29:11;;;;;;;10.67;4.10;;;14.20;99.90;;;;;;5034422;28;20416;-71
2023/10/05 05:31:39;;;;;;;8.13;3.67;;;14.20;99.90;;;;;;5032844;28;20534;-70
2023/10/05 05:34:07;;;;;;;7.43;4.10;;;14.20;99.90;;;;;;5033553;28;20504;-71
2023/10/05 05:36:36;;;;;;;6.97;3.97;;;14.20;99.90;;;;;;5034597;28;20545;-70
2023/10/05 05:39:04;;;;;;;8.63;4.50;;;14.20;99.90;;;;;;5053032;28;20919;-71
2023/10/05 05:41:37;;;;;;;9.20;4.40;;;14.20;99.90;;;;;;5052055;28;21040;-71
2023/10/05 05:44:07;;;;;;;9.17;4.40;;;14.20;99.90;;;;;;5053682;28;20434;-71
2023/10/05 05:46:36;;;;;;;6.90;4.40;;;14.20;99.90;;;;;;5053992;28;20442;-71
2023/10/05 05:49:08;;;;;;;7.63;4.00;;;14.20;99.90;;;;;;5052820;28;20454;-71
2023/10/05 05:51:36;;;;;;;14.17;5.33;;;14.20;99.90;;;;;;5053767;28;20833;-71
2023/10/05 05:54:05;;;;;;;8.20;4.40;;;14.20;99.90;;;;;;5052283;28;20454;-71
2023/10/05 05:56:33;;;;;;;7.33;4.40;;;14.20;99.90;;;;;;5052170;28;20826;-71
2023/10/05 05:59:02;;;;;;;6.43;4.73;;;14.20;99.90;;;;;;5051890;28;20477;-71
2023/10/05 06:01:35;;;;;;;7.93;4.50;;;14.10;99.90;;;;;;5053172;28;20434;-71
2023/10/05 06:04:05;;;;;;;11.63;4.50;;;14.10;99.90;;;;;;5053270;28;20452;-71
2023/10/05 06:06:35;;;;;;;10.40;4.63;;;14.10;99.90;;;;;;5053582;28;20414;-71
2023/10/05 06:09:07;;;;;;;6.63;4.10;;;14.10;99.90;;;;;;5051829;28;21182;-71
2023/10/05 06:11:35;;;;;;;10.20;4.93;;;14.20;99.90;;;;;;5053521;28;20458;-71
2023/10/05 06:14:05;;;;;;;9.03;4.87;;;14.10;99.90;;;;;;5051898;28;20550;-71
2023/10/05 06:16:34;;;;;;;9.63;4.90;;;14.10;99.90;;;;;;5034597;28;20828;-71
2023/10/05 06:19:02;;;;;;;6.97;4.60;;;14.20;99.90;;;;;;5033207;28;20477;-71
2023/10/05 06:21:32;;;;;;;8.30;4.20;;;14.20;99.90;;;;;;5032086;28;20501;-71
2023/10/05 06:24:02;;;;;;;8.60;4.60;;;14.20;99.90;;;;;;5032002;28;20804;-71
2023/10/05 06:26:31;;;;;;;9.07;3.90;;;14.20;99.90;;;;;;5031926;28;20545;-71
2023/10/05 06:28:59;;;;;;;9.63;4.17;;;14.20;99.90;;;;;;5033240;28;20442;-71
2023/10/05 06:31:28;;;;;;;8.80;4.10;;;14.20;99.90;;;;;;5033191;28;20526;-71
2023/10/05 06:33:57;;;;;;;8.73;4.83;;;14.30;99.90;;;;;;5033196;28;20447;-71
2023/10/05 06:36:25;;;;;;;8.60;4.23;;;14.30;99.90;;;;;;5033443;28;20439;-71
2023/10/05 06:38:56;;;;;;;10.20;4.40;;;14.30;99.90;;;;;;5037254;28;20520;-71
2023/10/05 06:41:24;;;;;;;9.70;3.93;;;14.40;99.90;;;;;;5037336;28;20419;-71
2023/10/05 06:43:53;;;;;;;8.83;4.20;;;14.40;99.90;;;;;;5037167;28;20474;-71
2023/10/05 06:46:26;;;;;;;10.10;4.40;;;14.40;99.90;;;;;;5037150;28;20990;-71
2023/10/05 06:48:55;;;;;;;11.30;4.70;;;14.40;99.90;;;;;;5037166;28;20457;-71
2023/10/05 06:51:26;;;;;;;13.03;4.83;;;14.50;99.90;;;;;;5037363;28;20431;-71
2023/10/05 06:53:57;;;;;;;8.57;3.90;;;14.50;99.90;;;;;;5037669;28;20884;-71
2023/10/05 06:56:26;;;;;;;9.70;4.77;;;14.50;99.90;;;;;;5035746;28;20439;-71
2023/10/05 06:58:55;;;;;;;10.13;4.70;;;14.50;99.90;;;;;;5035812;28;20912;-71
2023/10/05 07:01:23;;;;;;;10.33;4.90;;;14.60;99.90;;;;;;5037474;28;20796;-71
2023/10/05 07:03:53;;;;;;;9.03;4.70;;;14.60;99.90;;;;;;5037106;28;20543;-71
2023/10/05 07:06:24;;;;;;;6.87;3.90;;;14.60;99.90;;;;;;5037237;28;20475;-70
2023/10/05 07:08:53;;;;;;;7.20;4.07;;;14.70;99.90;;;;;;5035686;28;20474;-70
2023/10/05 07:11:22;;;;;;;11.00;5.10;;;14.70;99.90;;;;;;5037392;28;20470;-71
2023/10/05 07:13:50;;;;;;;9.50;4.60;;;14.80;99.90;;;;;;5037100;28;20435;-70
2023/10/05 07:16:19;;;;;;;8.97;4.33;;;14.80;99.90;;;;;;5036654;28;21002;-70
2023/10/05 07:18:48;;;;;;;10.77;4.60;;;14.90;99.90;;;;;;5036813;28;20469;-71
2023/10/05 07:21:17;;;;;;;8.53;4.10;;;14.90;99.90;;;;;;5036726;28;20453;-71
2023/10/05 07:23:45;;;;;;;6.87;3.43;;;14.90;99.90;;;;;;5036681;28;20516;-71
2023/10/05 07:26:14;;;;;;;7.27;4.10;;;15.00;99.90;;;;;;5036474;28;20565;-71
2023/10/05 07:28:43;;;;;;;7.63;4.00;;;15.00;99.90;;;;;;5035631;28;20908;-70
2023/10/05 07:31:12;;;;;;;7.00;3.23;;;15.00;99.90;;;;;;5037031;28;20439;-71
2023/10/05 07:33:41;;;;;;;9.50;4.10;;;15.10;99.90;;;;;;5036551;28;20442;-71
2023/10/05 07:36:10;;;;;;;8.93;3.70;;;15.10;99.90;;;;;;5036196;28;20463;-71
2023/10/05 07:38:38;;;;;;;11.03;3.70;;;15.20;99.90;;;;;;5036541;28;20908;-72
2023/10/05 07:41:07;;;;;;;5.70;3.57;;;15.20;99.90;;;;;;5037160;28;20534;-70
2023/10/05 07:43:35;;;;;;;8.23;4.00;;;15.20;99.90;;;;;;5035419;28;20447;-71
2023/10/05 07:46:06;;;;;;;9.50;4.83;;;15.20;99.90;;;;;;5036468;28;20561;-70
2023/10/05 07:48:35;;;;;;;11.40;4.97;;;15.30;99.90;;;;;;5036266;28;20796;-71
2023/10/05 07:51:04;;;;;;;6.97;4.03;;;15.30;99.90;;;;;;5036383;28;20469;-71
2023/10/05 07:53:32;;;;;;;10.37;4.27;;;15.30;99.90;;;;;;5036219;28;20471;-71
2023/10/05 07:56:00;;;;;;;6.03;3.40;;;15.40;99.90;;;;;;5034588;28;20434;-71
2023/10/05 07:58:28;;;;;;;12.10;4.70;;;15.40;99.90;;;;;;5035902;28;20435;-72
2023/10/05 08:00:57;;;;;;;8.97;4.43;;;15.40;99.90;;;;;;5036263;28;20465;-71
2023/10/05 08:03:26;;;;;;;7.63;3.63;;;15.50;99.90;;;;;;5034822;28;20478;-71
2023/10/05 08:05:54;;;;;;;11.53;4.00;;;15.50;99.90;;;;;;5035767;28;20493;-71
2023/10/05 08:08:22;;;;;;;6.40;3.80;;;15.50;99.90;;;;;;5036001;28;20940;-71
2023/10/05 08:10:51;;;;;;;9.30;4.20;;;15.50;99.90;;;;;;5036242;28;20428;-71
2023/10/05 08:13:19;;;;;;;10.60;4.33;;;15.50;99.90;;;;;;5035737;28;20534;-71
2023/10/05 08:15:47;;;;;;;7.43;3.70;;;15.50;99.90;;;;;;5035672;28;20451;-70
2023/10/05 08:18:15;;;;;;;9.20;4.30;;;15.60;99.90;;;;;;5035775;28;20438;-72
2023/10/05 08:20:44;;;;;;;6.67;3.87;;;15.60;99.90;;;;;;5034197;28;20474;-72
2023/10/05 08:23:12;;;;;;;7.53;4.13;;;15.60;99.90;;;;;;5036148;28;20445;-71
2023/10/05 08:25:40;;;;;;;8.40;3.90;;;15.60;99.90;;;;;;5035620;28;21058;-71
2023/10/05 08:28:10;;;;;;;10.87;4.00;;;15.60;99.90;;;;;;5035456;28;20465;-71
2023/10/05 08:30:49;;;;;;;11.73;4.97;;;15.60;99.90;;;;;;5035552;28;20435;-71
2023/10/05 08:33:19;;;;;;;7.87;4.20;;;15.60;99.90;;;;;;5034402;28;20466;-71
2023/10/05 08:35:49;;;;;;;10.47;4.93;;;15.60;99.90;;;;;;5035320;28;20462;-71
2023/10/05 08:38:17;;;;;;;10.53;4.00;;;15.60;99.90;;;;;;5035374;28;20833;-71
2023/10/05 08:40:48;;;;;;;7.30;4.20;;;15.60;99.90;;;;;;5035049;28;20477;-71
2023/10/05 08:43:17;;;;;;;10.77;4.50;;;15.60;99.90;;;;;;5034062;28;20485;-71
2023/10/05 08:45:50;;;;;;;6.10;4.07;;;15.60;99.90;;;;;;5035273;28;20497;-71
2023/10/05 08:48:22;;;;;;;9.50;4.20;;;15.60;99.90;;;;;;5035480;28;20426;-71
2023/10/05 08:50:56;;;;;;;7.00;4.07;;;15.60;99.90;;;;;;5035377;28;20450;-71
2023/10/05 08:53:24;;;;;;;8.00;4.57;;;15.60;99.90;;;;;;5035233;28;20545;-71
2023/10/05 08:55:54;;;;;;;11.60;4.20;;;15.60;99.90;;;;;;5034962;28;20467;-71
2023/10/05 08:58:22;;;;;;;9.50;4.03;;;15.60;99.90;;;;;;5033292;28;20458;-71
2023/10/05 09:00:52;;;;;;;6.80;4.40;;;15.60;99.90;;;;;;5035508;28;20970;-72
2023/10/05 09:03:36;;;;;;;9.67;4.80;;;15.60;99.90;;;;;;5035332;28;20477;-71
2023/10/05 09:06:20;;;;;;;8.37;5.20;;;15.60;99.90;;;;;;5034207;28;20509;-71
2023/10/05 09:08:53;;;;;;;12.00;4.93;;;15.60;99.90;;;;;;5035493;28;20888;-71
2023/10/05 09:11:26;;;;;;;7.60;3.87;;;15.60;99.90;;;;;;5035079;28;20489;-72
2023/10/05 09:13:56;;;;;;;7.87;4.20;;;15.60;99.90;;;;;;5035794;28;20451;-71
2023/10/05 09:16:30;;;;;;;7.23;4.23;;;15.60;99.90;;;;;;5035161;28;20473;-71
2023/10/05 09:19:00;;;;;;;9.33;4.77;;;15.60;99.90;;;;;;5036335;28;20731;-71
2023/10/05 09:21:44;;;;;;;10.03;4.40;;;15.50;99.90;;;;;;5035419;28;20473;-71
2023/10/05 09:24:20;;;;;;;9.03;4.53;;;15.50;99.90;;;;;;5035524;28;20506;-71
2023/10/05 09:26:54;;;;;;;8.17;4.80;;;15.50;99.90;;;;;;5035382;28;20450;-71
2023/10/05 09:29:27;;;;;;;10.07;5.37;;;15.50;99.90;;;;;;5035587;28;20511;-72
2023/10/05 09:31:57;;;;;;;9.57;5.30;;;15.40;99.90;;;;;;5035061;28;20477;-70
2023/10/05 09:34:37;;;;;;;9.90;4.90;;;15.40;99.90;;;;;;5034889;28;20437;-70
2023/10/05 09:37:08;;;;;;;8.80;5.20;;;15.40;99.90;;;;;;5035060;28;20456;-70
2023/10/05 09:39:43;;;;;;;11.53;5.70;;;15.40;99.90;;;;;;5034704;28;20419;-70
2023/10/05 09:42:22;;;;;;;9.10;5.87;;;15.40;99.90;;;;;;5035012;28;20416;-70
2023/10/05 09:44:52;;;;;;;12.63;6.00;;;15.30;99.90;;;;;;5034929;28;20464;-70
2023/10/05 09:47:26;;;;;;;8.80;5.60;;;15.40;99.90;;;;;;5034969;28;20406;-70
2023/10/05 09:49:56;;;;;;;9.83;6.20;;;15.40;99.90;;;;;;5034895;28;20454;-70
2023/10/05 09:52:31;;;;;;;12.80;6.43;;;15.30;99.90;;;;;;5034405;28;20542;-69
2023/10/05 09:55:00;;;;;;;11.43;6.10;;;15.30;99.90;;;;;;5034716;28;20536;-69
2023/10/05 09:57:28;;;;;;;9.77;6.50;;;15.30;99.90;;;;;;5034669;28;20432;-70
2023/10/05 10:00:00;;;;;;;11.20;5.40;;;15.30;99.90;;;;;;5034312;28;20568;-70
2023/10/05 10:02:40;;;;;;;8.47;6.10;;;15.30;99.90;;;;;;5034697;28;20397;-71
2023/10/05 10:05:29;;;;;;;9.00;6.20;;;15.30;99.90;;;;;;5033410;28;20494;-70
2023/10/05 10:08:09;;;;;;;12.83;6.90;;;15.30;99.90;;;;;;5034555;28;20458;-70
2023/10/05 10:10:51;;;;;;;10.77;7.00;;;15.30;99.90;;;;;;5033476;28;20455;-70
2023/10/05 10:13:22;;;;;;;10.47;5.83;;;15.30;99.90;;;;;;5034430;28;20478;-70
2023/10/05 10:15:54;;;;;;;10.13;6.13;;;15.30;99.90;;;;;;5034202;28;20470;-70
2023/10/05 10:18:37;;;;;;;12.97;6.50;;;15.30;99.90;;;;;;5034543;28;20477;-70
2023/10/05 10:21:12;;;;;;;10.07;6.47;;;15.30;99.90;;;;;;5033623;28;20975;-70
2023/10/05 10:23:51;;;;;;;8.53;6.83;;;15.30;99.90;;;;;;5033898;28;20427;-70
2023/10/05 10:26:24;;;;;;;10.13;6.40;;;15.40;99.90;;;;;;5031918;28;20522;-70
2023/10/05 10:28:57;;;;;;;12.40;6.60;;;15.40;99.90;;;;;;5033291;28;20596;-70
2023/10/05 10:31:42;;;;;;;8.77;6.20;;;15.40;99.90;;;;;;5033498;28;20481;-70
2023/10/05 10:34:19;;;;;;;9.80;7.00;;;15.40;99.90;;;;;;5033605;28;20415;-71
2023/10/05 10:36:52;;;;;;;7.17;6.07;;;15.40;99.90;;;;;;5033908;28;20441;-70
2023/10/05 10:39:27;;;;;;;9.60;5.17;;;15.40;99.90;;;;;;5033353;28;20427;-70
2023/10/05 10:42:04;;;;;;;8.03;3.80;;;15.50;99.90;;;;;;5033211;28;20486;-70
2023/10/05 10:44:51;;;;;;;5.23;2.73;;;15.50;99.90;;;;;;5033541;28;20450;-70
2023/10/05 10:47:20;;;;;;;7.30;2.67;;;15.50;99.90;;;;;;5033484;28;20511;-70
2023/10/05 10:50:04;;;;;;;3.20;2.50;;;15.40;99.90;;;;;;5033101;28;20438;-70
2023/10/05 10:52:36;;;;;;;2.97;2.40;;;15.50;99.90;;;;;;5033374;28;20401;-70
2023/10/05 10:55:09;;;;;;;5.13;3.50;;;15.50;99.90;;;;;;5033020;28;20459;-70
2023/10/05 10:57:38;;;;;;;5.47;2.93;;;15.50;99.90;;;;;;5033413;28;20419;-70
2023/10/05 11:02:54;;;;;;;3.17;2.10;;;15.50;99.90;;;;;;5032918;28;20449;-70
2023/10/05 11:05:35;;;;;;;3.90;2.20;;;15.50;99.90;;;;;;5033249;28;20459;-70
2023/10/05 11:08:05;;;;;;;5.23;2.93;;;15.50;99.90;;;;;;5033551;28;20400;-70
2023/10/05 11:10:34;;;;;;;4.13;2.33;;;15.50;99.90;;;;;;5032934;28;20785;-70
2023/10/05 11:13:14;;;;;;;3.40;2.53;;;15.60;99.90;;;;;;5033069;28;20530;-69
2023/10/05 11:15:57;;;;;;;4.07;2.03;;;15.50;99.90;;;;;;5033286;28;20455;-69
2023/10/05 11:18:30;;;;;;;2.90;1.90;;;15.50;99.90;;;;;;5032972;28;20488;-69
2023/10/05 11:21:06;;;;;;;5.50;2.50;;;15.50;99.90;;;;;;5033458;28;20944;-69
2023/10/05 11:23:44;;;;;;;4.60;2.13;;;15.40;99.90;;;;;;5036606;28;20780;-69
2023/10/05 11:26:26;;;;;;;5.53;2.50;;;15.40;99.90;;;;;;5036571;28;20843;-69
2023/10/05 11:28:59;;;;;;;5.63;2.00;;;15.40;99.90;;;;;;5036446;28;20438;-69
2023/10/05 11:31:33;;;;;;;3.80;1.80;;;15.30;99.90;;;;;;5036359;28;20911;-69
2023/10/05 11:34:22;;;;;;;4.13;2.20;;;15.30;99.90;;;;;;5036515;28;20451;-69
2023/10/05 11:37:15;;;;;;;6.43;2.97;;;15.30;99.90;;;;;;5035024;28;20449;-70
2023/10/05 11:39:49;;;;;;;5.57;2.80;;;15.40;99.90;;;;;;5036817;28;20409;-69
2023/10/05 11:42:24;;;;;;;3.87;2.60;;;15.40;99.90;;;;;;5036424;28;20490;-69
2023/10/05 11:44:55;;;;;;;6.00;2.87;;;15.40;99.90;;;;;;5036169;28;20478;-69
2023/10/05 11:47:32;;;;;;;6.27;2.40;;;15.50;99.90;;;;;;5036698;28;20778;-69
2023/10/05 11:50:07;;;;;;;3.63;2.60;;;15.50;99.90;;;;;;5036748;28;20415;-69
2023/10/05 11:52:38;;;;;;;5.23;2.70;;;15.50;99.90;;;;;;5036053;28;20397;-69
2023/10/05 11:55:08;;;;;;;4.23;2.87;;;15.60;99.90;;;;;;5035972;28;20545;-69
2023/10/05 11:57:39;;;;;;;4.60;2.60;;;15.60;99.90;;;;;;5036266;28;20429;-69
2023/10/05 12:00:12;;;;;;;6.27;3.40;;;15.60;99.90;;;;;;5035854;28;21011;-69
2023/10/05 12:02:42;;;;;;;5.77;2.50;;;15.60;99.90;;;;;;5035808;28;20534;-69
2023/10/05 12:05:11;;;;;;;5.30;2.50;;;15.60;99.90;;;;;;5036582;28;20440;-69
2023/10/05 12:07:41;;;;;;;7.20;2.63;;;15.60;99.90;;;;;;5036253;28;20541;-69
2023/10/05 12:10:11;;;;;;;5.87;2.80;;;15.70;99.90;;;;;;5035955;28;20912;-69
2023/10/05 12:12:41;;;;;;;5.97;3.10;;;15.70;99.90;;;;;;5036335;28;20488;-69
2023/10/05 12:15:17;;;;;;;5.67;2.73;;;15.70;99.90;;;;;;5035579;28;20455;-70
2023/10/05 12:17:45;;;;;;;6.07;2.93;;;15.70;99.90;;;;;;5034321;28;20448;-70
2023/10/05 12:20:14;;;;;;;4.97;2.80;;;15.80;99.90;;;;;;5035434;28;20529;-69
2023/10/05 12:22:45;;;;;;;5.37;3.00;;;15.80;99.90;;;;;;5035412;28;20445;-69
2023/10/05 12:25:27;;;;;;;4.87;3.37;;;15.80;99.90;;;;;;5035711;28;20504;-69
2023/10/05 12:27:57;;;;;;;5.53;2.80;;;15.90;99.90;;;;;;5035300;28;20533;-69
2023/10/05 12:30:25;;;;;;;6.73;3.90;;;15.90;99.90;;;;;;5035297;28;20496;-69
2023/10/05 12:32:55;;;;;;;6.63;3.20;;;15.90;99.90;;;;;;5035421;28;20443;-70
2023/10/05 12:35:23;;;;;;;4.80;2.67;;;15.90;99.90;;;;;;5034508;28;20451;-70
2023/10/05 12:37:52;;;;;;;5.07;3.67;;;15.90;99.90;;;;;;5035276;28;20421;-70
2023/10/05 12:40:26;;;;;;;3.70;2.70;;;15.90;99.90;;;;;;5035358;28;20492;-69
2023/10/05 12:42:54;;;;;;;5.00;2.73;;;15.90;99.90;;;;;;5035297;28;20454;-69
2023/10/05 12:45:28;;;;;;;5.00;3.03;;;16.00;99.90;;;;;;5035004;28;20461;-70
2023/10/05 12:47:58;;;;;;;7.67;3.17;;;16.00;99.90;;;;;;5035260;28;20513;-69
2023/10/05 12:50:28;;;;;;;6.10;2.50;;;16.00;99.90;;;;;;5034927;28;20436;-69
2023/10/05 12:52:58;;;;;;;5.03;3.00;;;16.00;99.90;;;;;;5034833;28;20439;-69
2023/10/05 12:55:29;;;;;;;5.60;3.23;;;16.00;99.90;;;;;;5034751;28;20433;-70
2023/10/05 12:57:58;;;;;;;7.63;3.53;;;16.10;99.90;;;;;;5034821;28;20587;-70
2023/10/05 13:00:31;;;;;;;9.23;4.13;;;16.10;99.90;;;;;;5035260;28;20493;-70
2023/10/05 13:03:00;;;;;;;5.87;3.43;;;16.10;99.90;;;;;;5034684;28;20455;-69
2023/10/05 13:05:31;;;;;;;6.73;3.77;;;16.20;99.90;;;;;;5034496;28;20990;-70
2023/10/05 13:08:03;;;;;;;6.00;3.70;;;16.20;99.90;;;;;;5034606;28;20469;-70
2023/10/05 13:10:32;;;;;;;5.90;4.17;;;16.20;99.90;;;;;;5034517;28;20501;-70
2023/10/05 13:13:02;;;;;;;9.40;4.10;;;16.20;99.90;;;;;;5035032;28;20435;-70